Metar z połowy godziny Komunikat METAR ze strony awiacja.imgw.pl Metar G00 EPKK METAR EPKK 230430Z 32002KT 9999 -RA BKN050 07/05 Q0997 =